SÍGUENOS

APP INUMET

Disponible en Google Play

Productos aeronáuticos

  • SIGMET
  • METAR / SPECI
  • TAF
  • AIREP
  • Aviso de aeródromo
  • Pronárea
  • Carta superficie

Mensajes METAR de la última hora

SULS 230000Z 05013KT CAVOK 10/08 Q1015
SUMU 230000Z 03005KT CAVOK 12/09 Q1015 NOSIG

Mensajes METAR de la última hora - Internacionales


Argentina
SAAR 230000Z 07006KT CAVOK 13/09 Q1011
SABE 230000Z 02005KT 340V080 CAVOK 14/10 Q1013
SACO 230000Z 04009KT CAVOK 12/03 Q1009
SAEZ 230000Z 03006KT 010V080 9000 NSC 14/08 Q1012
SAME 230000Z CAVOK 12/M00 Q1007
Bolivia
SLLP 230000Z 07007KT 9999 FEW015 04/M04 Q1036
Brasil
SBBR 230000Z 11006KT CAVOK 19/05 Q1023
SBFI 230000Z 10005KT CAVOK 19/13 Q1017
SBFL 230000Z 00000KT CAVOK 12/11 Q1024
SBGR 230000Z 14003KT 9999 OVC001 15/13 Q1026
SBPA 230000Z 11007KT CAVOK 14/12 Q1019
SBRJ 230000Z 20003KT 9999 SCT035 20/17 Q1023
SBSP 230000Z 11005KT 4000 BR BKN009 15/12 Q1026
Colombia
SKBO 230000Z 11007KT 080V150 9000 DZ BKN017 SCT070 14/09A3037
Chile
SCCI 230000Z 27012KT 9999 FEW040 OVC100 03/02 Q0984 NOSIG
SCEL 230000Z 29003KT 240V310 7000 OVC030 10/08 Q1020 NOSIG
Ecuador
SEQM 230000Z 01005KT 9999 FEW030 18/04 Q1025 NOSIG RMK A3028
EEUU
KMIA 222353Z 12006KT 7SM FEW030 SCT180 OVC250 30/23 A3006 RMK AO2 SLP178 T03000228 10328 20300 51007
KDCA 222352Z 00000KT 10SM FEW050 FEW110 OVC180 25/22 A2979 RMK AO2 RAE40 SLP086 P0002 60052 T02500217 10344 20233 58013
KIAD 222352Z 00000KT 10SM FEW045TCU BKN090 OVC150 23/22 A2979 RMK AO2 LTG DSNT SE AND S RAE08 SLP086 TCU SE-S P0000 60068 T02280217 10322 20222 58013
KJFK 222351Z 13004KT 10SM FEW055 SCT120 BKN190 OVC250 27/22 A2978 RMK AO2 RAB10E39 SLP083 P0000 60000 T02670222 10311 20267 56006
KLGA 222351Z 15008KT 10SM FEW060 BKN110 OVC250 28/19 A2976 RMK AO2 RAB2255E28 SLP077 P0000 60000 T02830189 10328 20278 57003
España
LEBL 230030Z VRB01KT 9999 FEW018 SCT024 25/21 Q1016 NOSIG
LEMD 230030Z 33003KT CAVOK 22/06 Q1017 NOSIG
LEBL 230000Z VRB02KT 9999 FEW018 26/23 Q1016 NOSIG
LEMD 230000Z VRB02KT CAVOK 22/06 Q1017 NOSIG
Francia
LFPO 230030Z 23005KT CAVOK 14/10 Q1015 NOSIG
LFPO 230000Z 21004KT CAVOK 14/11 Q1015 NOSIG
Inglaterra
EGLL 230020Z AUTO 19002KT 9999 FEW021 13/12 Q1009 NOSIG
EGLL 222350Z AUTO 16002KT 9999 NCD 13/12 Q1009 NOSIG
Panamá
MPTO 230000Z 29004KT 9999 FEW003 SCT018CB BKN080 25/25 Q1011 RERA RWY DAMP NOSIG
Paraguay
SGAS 230000Z 00000KT 6000 NSC 18/13 Q1013
Venezuela
SVMI 230000Z 00000KT 9999 SCT016 30/20 Q1012

* Datos extraidos del Text DataServer de la NOAA (NOAA TEXT DATA SERVER)

Instituto Uruguayo de Meteorología

Dr. Javier Barrios Amorín 1488 - CP 11200
Mesa Central (598) 1895

Montevideo - Uruguay